Comodoro Rivadavia, Argentina

11:48 PM ART en Octubre 24, 2014 (GMT -0300)
GEN. Enrique Mosconi International | Change Station
CLOSE
Current Station
Aeropuerto
Location: Comodoro Rivadavia,
Altura: 151 ft
Estaciones meteorológicas cercanas

Alt 151 ft 45.78 °S, 67.50 °W | Updated 48 minutes ago

Clear
Despejado
55 ° F
Sensación térmica 55 ° F
N
4
Viento Variable Viento desde NO

Hoy
Alta -- | Baja -- ° F
--% Posibilidad de precipitaciones
Ayer
Alta -- | Baja -- ° F
Precip. -- pul
6:19 AM 8:09 PM
Luna nueva, 2% visible
Presión 29.89 pul
Visibilidad -9999.0 Millas
Nubes
Punto de rocío 37 ° F
Humedad 51%
Precipitaciones 0.00 pul
Espesor de la nieve No disponible.
UV No disponible.
Polen No disponible.
Calidad del aire No disponible.
Flu Activity No disponible.
METAR SAVC 250200Z 32003KT CAVOK 13/03 Q1012

More Conditions Fewer Conditions

Presión 29.89 pul
Visibilidad -9999.0 Millas
Nubes
Punto de rocío 37 ° F
Humedad 51%
Precipitaciones 0.00 pul
Espesor de la nieve No disponible.
UV No disponible.
Polen No disponible.
Calidad del aire No disponible.
Flu Activity No disponible.
METAR SAVC 250200Z 32003KT CAVOK 13/03 Q1012

More Conditions Fewer Conditions

10-Day Weather Forecast

Almanac

Astronomía

Oct. 24, 2014 Salida Puesta
Hora real 6:19 AM ART 8:09 PM ART
Crepúsculo civil 5:47 AM ART 8:41 PM ART
Crepúsculo náutico 5:09 AM ART 9:20 PM ART
Crepúsculo astronómico 4:27 AM ART 10:02 PM ART
Luna 6:47 AM ART (10/24) 9:05 PM ART (10/24)
Horas de luz 14h 53m
Horas de luz
13h 49m
Tomorrow will be 3m 5s longer.
Luna nueva, 2% of the Moon is Illuminated
Hoy
Luna nueva
Oct 30
Cuarto creciente
Nov 6
Luna llena
Nov 14
Cuarto menguante
Nov 22
Nueva

Extremos de hoy

Máximos del país Bajas del país

Community

WunderPhotos

Upload Photos

1,764,760 ¡fotos cargadas!

Nearby

Calidad del aire

Not available.

Grosos de nieve

Not available.

Actividad de terremotos

Ciudad Distance Mag. Tiempo y dato
No hay informes recientes de la actividad sísmica.
Magnitud mínima muestra es 2,5.

Temperaturas de aguas costeras

Lugar Temperatura
Sin partes meteorológicos de las estaciones

Estaciones meteorológicas cercanas